Impacts TAF Board INFO
FOR SITUATIONAL AWARENESS. NOT TO BE USED FOR FLIGHT PLANNING PURPOSES.
IDs:

KMCO - Orlando Intl, FL, US

Issued at 0536 UTC 23 Feb 2018
Updated at 0621 UTC 23 Feb 2018
Potential Impact None Slight Moderate High
Time<<24/07Z 24/08Z 24/09Z 24/10Z 24/11Z 24/12Z 24/13Z 24/14Z 24/15Z 24/16Z 24/17Z 24/18Z 24/19Z
Type PRVL PRVL PRVL PRVL PRVL
VIS >6 >6 >6 >6 >6
CIG -- -- -- -- --
Cover FEW FEW FEW FEW FEW
FltCat VFR VFR VFR VFR VFR
WX -- -- -- -- --
WDir 100 100 100 100 100
WSpd 6 6 6 6 6
WGst -- -- -- -- --

Raw TAF
KMCO 230536Z 2306/2412 05005KT P6SM FEW025
  FM231500 11010KT P6SM FEW030 SCT050
  FM240000 10006KT P6SM FEW040


METAR Board
Radar Display
Forecast Discussion

FOR SITUATIONAL AWARENESS. NOT TO BE USED FOR FLIGHT PLANNING PURPOSES.